Time;durP1;ratioP1;P1;durP2;ratioP2;P2;SDS_P1;SDS_P2;PMS_P1;PMS_P2;Temp;Humidity;BMP_temperature;BMP_pressure;BME280_temperature;BME280_humidity;BME280_pressure;Samples;Min_cycle;Max_cycle;Signal;HPM_P1;HPM_P2
2022/05/31 00:00:51;;;;;;;3.70;2.58;;;;;;;13.07;67.02;100770.28;4993745;28;20414;-51
2022/05/31 00:03:18;;;;;;;4.40;2.70;;;;;;;13.04;66.77;100765.13;4993719;28;20054;-50
2022/05/31 00:05:46;;;;;;;3.55;2.33;;;;;;;13.04;66.83;100769.47;4994093;28;20057;-51
2022/05/31 00:08:13;;;;;;;5.00;3.10;;;;;;;13.05;66.95;100774.66;4993752;28;20057;-51
2022/05/31 00:10:44;;;;;;;3.85;2.30;;;;;;;13.05;66.60;100768.59;4992574;28;20073;-51
2022/05/31 00:13:12;;;;;;;3.65;2.40;;;;;;;13.02;66.73;100766.06;4992706;28;20471;-51
2022/05/31 00:15:44;;;;;;;3.20;2.35;;;;;;;13.03;66.50;100763.41;4993764;28;20065;-51
2022/05/31 00:18:14;;;;;;;3.65;2.45;;;;;;;13.01;66.55;100775.59;4993471;28;20082;-51
2022/05/31 00:20:44;;;;;;;2.50;1.80;;;;;;;12.99;66.60;100777.34;4993504;28;20329;-51
2022/05/31 00:23:13;;;;;;;2.50;1.95;;;;;;;12.99;66.59;100771.28;4993249;28;20483;-53
2022/05/31 00:25:41;;;;;;;2.60;1.90;;;;;;;12.96;66.34;100774.78;4993508;28;20051;-53
2022/05/31 00:28:08;;;;;;;3.33;2.40;;;;;;;12.92;66.36;100770.53;4993414;28;20054;-51
2022/05/31 00:30:38;;;;;;;4.57;2.42;;;;;;;12.88;66.57;100779.28;4993055;28;20452;-54
2022/05/31 00:33:10;;;;;;;3.42;2.50;;;;;;;12.85;66.57;100779.31;4993250;28;20058;-51
2022/05/31 00:35:41;;;;;;;2.95;2.08;;;;;;;12.81;66.62;100782.88;4993447;28;20194;-51
2022/05/31 00:38:12;;;;;;;3.88;2.40;;;;;;;12.77;66.52;100778.59;4993347;28;20050;-51
2022/05/31 00:40:40;;;;;;;2.97;1.90;;;;;;;12.74;66.50;100781.25;4992521;28;20050;-54
2022/05/31 00:43:10;;;;;;;3.85;2.28;;;;;;;12.68;66.43;100786.56;4993313;28;20057;-51
2022/05/31 00:45:41;;;;;;;3.20;2.10;;;;;;;12.63;66.72;100790.09;4993392;28;20063;-51
2022/05/31 00:48:16;;;;;;;3.38;2.58;;;;;;;12.59;66.86;100796.22;4993248;28;20073;-52
2022/05/31 00:50:48;;;;;;;3.45;2.55;;;;;;;12.54;66.92;100792.84;4993410;28;20058;-51
2022/05/31 00:53:18;;;;;;;3.70;2.35;;;;;;;12.53;66.90;100801.53;4992979;28;20475;-52
2022/05/31 00:55:50;;;;;;;3.80;2.40;;;;;;;12.49;66.87;100802.44;4992995;28;20050;-50
2022/05/31 00:58:22;;;;;;;4.07;2.53;;;;;;;12.45;66.99;100808.56;4993644;28;20053;-54
2022/05/31 01:00:51;;;;;;;4.35;2.60;;;;;;;12.42;67.07;100806.00;4993454;28;20066;-50
2022/05/31 01:03:23;;;;;;;3.95;2.63;;;;;;;12.37;66.99;100807.81;4993228;28;20085;-54
2022/05/31 01:05:51;;;;;;;4.53;2.63;;;;;;;12.33;67.18;100808.72;4993384;28;20124;-54
2022/05/31 01:08:19;;;;;;;5.05;2.67;;;;;;;12.27;67.41;100811.41;4993386;28;20050;-51
2022/05/31 01:10:47;;;;;;;4.45;2.92;;;;;;;12.20;67.52;100820.19;4992700;28;20065;-49
2022/05/31 01:13:17;;;;;;;3.75;2.67;;;;;;;12.14;67.59;100809.88;4992982;28;20058;-49
2022/05/31 01:15:47;;;;;;;5.20;3.35;;;;;;;12.09;67.78;100819.47;4992949;28;20050;-51
2022/05/31 01:18:16;;;;;;;3.75;2.63;;;;;;;12.06;67.90;100817.78;4993027;28;20058;-51
2022/05/31 01:20:46;;;;;;;4.30;2.92;;;;;;;12.03;68.03;100816.97;4992319;28;20419;-49
2022/05/31 01:23:17;;;;;;;5.93;2.88;;;;;;;11.99;68.18;100811.81;4993110;28;20416;-50
2022/05/31 01:26:05;;;;;;;6.15;2.72;;;;;;;11.97;67.86;100817.91;4996643;28;20054;-51
2022/05/31 01:28:42;;;;;;;3.92;2.60;;;;;;;11.89;68.19;100820.56;4999842;28;20061;-51
2022/05/31 01:31:17;;;;;;;3.72;2.38;;;;;;;11.82;68.15;100824.13;5016523;28;20094;-51
2022/05/31 01:33:48;;;;;;;4.03;2.60;;;;;;;11.76;68.24;100816.38;5016405;28;20104;-51
2022/05/31 01:36:23;;;;;;;3.83;2.83;;;;;;;11.74;68.43;100820.72;5012010;28;20805;-53
2022/05/31 01:38:56;;;;;;;3.45;2.78;;;;;;;11.73;68.42;100824.19;4996331;28;20061;-51
2022/05/31 01:41:29;;;;;;;3.95;2.58;;;;;;;11.72;68.30;100819.88;4996089;28;20129;-51
2022/05/31 01:44:01;;;;;;;3.83;2.55;;;;;;;11.73;68.15;100826.78;4996794;28;20058;-51
2022/05/31 01:46:33;;;;;;;3.72;2.35;;;;;;;11.72;68.37;100829.41;4977206;28;20059;-51
2022/05/31 01:49:07;;;;;;;5.30;3.40;;;;;;;11.71;68.48;100825.94;4976735;28;20756;-51
2022/05/31 01:51:41;;;;;;;4.25;2.42;;;;;;;11.70;68.58;100830.28;4988422;28;20141;-51
2022/05/31 01:54:11;;;;;;;4.35;2.42;;;;;;;11.69;68.56;100825.13;5015843;28;20098;-54
2022/05/31 01:56:42;;;;;;;4.45;2.47;;;;;;;11.69;68.81;100827.72;5000543;28;20069;-51
2022/05/31 01:59:09;;;;;;;4.05;2.60;;;;;;;11.66;69.04;100832.94;4996161;28;20054;-53
2022/05/31 02:01:39;;;;;;;4.22;2.70;;;;;;;11.65;68.73;100831.22;4996095;28;20054;-54
2022/05/31 02:04:08;;;;;;;4.45;2.72;;;;;;;11.64;68.90;100842.47;4995901;28;20065;-54
2022/05/31 02:06:40;;;;;;;5.63;2.35;;;;;;;11.62;68.96;100841.63;4995737;28;20050;-51
2022/05/31 02:09:10;;;;;;;4.38;2.63;;;;;;;11.62;69.30;100841.63;4995417;28;20459;-51
2022/05/31 02:11:38;;;;;;;7.18;2.72;;;;;;;11.61;69.09;100845.13;4995252;28;20065;-50
2022/05/31 02:14:08;;;;;;;4.43;2.60;;;;;;;11.61;69.00;100845.13;4996091;28;20050;-51
2022/05/31 02:16:39;;;;;;;3.60;2.80;;;;;;;11.61;69.17;100851.16;4995875;28;20054;-51
2022/05/31 02:19:25;;;;;;;4.88;2.47;;;;;;;11.58;69.29;100842.56;4996176;28;20046;-51
2022/05/31 02:21:58;;;;;;;4.38;2.70;;;;;;;11.57;69.33;100846.03;4989102;28;20118;-51
2022/05/31 02:24:28;;;;;;;3.92;2.70;;;;;;;11.55;69.54;100845.19;4977762;28;20060;-54
2022/05/31 02:26:58;;;;;;;6.18;2.75;;;;;;;11.56;69.35;100846.91;4989778;28;20479;-50
2022/05/31 02:29:28;;;;;;;4.80;2.85;;;;;;;11.57;69.20;100853.81;5005917;28;20077;-52
2022/05/31 02:32:00;;;;;;;3.83;2.50;;;;;;;11.56;69.38;100852.09;5015630;28;20061;-52
2022/05/31 02:34:29;;;;;;;5.22;3.15;;;;;;;11.56;68.99;100847.75;4975453;28;20051;-51
2022/05/31 02:37:00;;;;;;;6.55;2.83;;;;;;;11.56;69.24;100844.31;4976309;28;20703;-54
2022/05/31 02:39:27;;;;;;;3.60;2.47;;;;;;;11.57;69.16;100851.22;4976645;28;20078;-51
2022/05/31 02:41:54;;;;;;;3.88;2.70;;;;;;;11.59;69.36;100854.66;4995829;28;20050;-51
2022/05/31 02:44:22;;;;;;;3.47;2.28;;;;;;;11.61;69.19;100855.50;4995814;28;20050;-52
2022/05/31 02:46:51;;;;;;;4.32;2.75;;;;;;;11.65;69.02;100857.19;4995566;28;20124;-50
2022/05/31 02:49:18;;;;;;;3.17;2.35;;;;;;;11.68;69.23;100859.75;4995746;28;20050;-54
2022/05/31 02:51:47;;;;;;;3.17;2.13;;;;;;;11.73;69.20;100857.09;4995738;28;20046;-51
2022/05/31 02:54:18;;;;;;;3.72;2.58;;;;;;;11.74;69.47;100862.28;4995578;28;20050;-51
2022/05/31 02:56:49;;;;;;;3.88;2.22;;;;;;;11.78;69.38;100852.75;4995137;28;20462;-50
2022/05/31 02:59:15;;;;;;;4.47;3.20;;;;;;;11.81;69.57;100857.91;4995462;28;20042;-50
2022/05/31 03:01:44;;;;;;;3.53;2.25;;;;;;;11.86;69.25;100861.31;4995329;28;20050;-50
2022/05/31 03:04:13;;;;;;;4.03;2.40;;;;;;;11.91;69.42;100864.72;4995437;28;20054;-50
2022/05/31 03:06:41;;;;;;;3.30;2.28;;;;;;;11.95;69.23;100854.25;4995052;28;20387;-51
2022/05/31 03:09:09;;;;;;;3.90;2.53;;;;;;;12.00;69.29;100862.88;4995289;28;20057;-51
2022/05/31 03:11:43;;;;;;;4.80;2.65;;;;;;;12.04;69.06;100860.25;4994493;28;20050;-51
2022/05/31 03:14:16;;;;;;;3.58;2.25;;;;;;;12.09;68.96;100866.25;4995156;28;20069;-53
2022/05/31 03:16:48;;;;;;;4.05;2.60;;;;;;;12.12;68.88;100858.41;4995286;28;20085;-53
2022/05/31 03:19:18;;;;;;;3.92;1.85;;;;;;;12.16;69.02;100867.88;4994738;28;20061;-51
2022/05/31 03:21:51;;;;;;;3.85;2.05;;;;;;;12.21;68.84;100858.28;4995003;28;20054;-53
2022/05/31 03:24:21;;;;;;;4.78;2.50;;;;;;;12.27;68.63;100858.22;4994762;28;20357;-53
2022/05/31 03:26:53;;;;;;;3.88;2.30;;;;;;;12.30;68.52;100852.97;4995061;28;20062;-55
2022/05/31 03:29:21;;;;;;;3.95;2.33;;;;;;;12.35;68.44;100855.50;4995317;28;20049;-50
2022/05/31 03:31:48;;;;;;;4.78;2.75;;;;;;;12.42;68.48;100863.19;4994562;28;20388;-51
2022/05/31 03:34:14;;;;;;;6.40;2.70;;;;;;;12.50;68.47;100860.50;4994512;28;20494;-54
2022/05/31 03:36:42;;;;;;;5.55;2.35;;;;;;;12.59;68.24;100860.38;4994748;28;20063;-50
2022/05/31 03:39:10;;;;;;;4.80;2.20;;;;;;;12.69;67.92;100867.16;4994833;28;20061;-50
2022/05/31 03:41:40;;;;;;;5.22;2.38;;;;;;;12.82;67.87;100873.03;4994515;28;20081;-51
2022/05/31 03:44:10;;;;;;;3.10;2.00;;;;;;;12.94;67.69;100870.22;4994554;28;20069;-51
2022/05/31 03:46:39;;;;;;;2.85;2.03;;;;;;;13.06;67.42;100867.47;4994255;28;20090;-54
2022/05/31 03:49:10;;;;;;;3.05;1.92;;;;;;;13.16;67.14;100870.75;4994638;28;20046;-51
2022/05/31 03:51:39;;;;;;;3.40;1.83;;;;;;;13.27;67.03;100877.53;4994034;28;20491;-51
2022/05/31 03:54:10;;;;;;;4.18;2.15;;;;;;;13.34;66.68;100873.06;4994456;28;20054;-54
2022/05/31 03:56:40;;;;;;;3.78;2.67;;;;;;;13.40;66.72;100874.72;4994692;28;20050;-53
2022/05/31 03:59:15;;;;;;;5.00;2.92;;;;;;;13.46;66.20;100872.84;4994319;28;20078;-51
2022/05/31 04:01:42;;;;;;;4.00;2.60;;;;;;;13.48;66.23;100881.50;4994335;28;20050;-51
2022/05/31 04:04:10;;;;;;;3.45;2.33;;;;;;;13.52;66.09;100888.38;4994287;28;20050;-54
2022/05/31 04:06:38;;;;;;;3.90;2.22;;;;;;;13.58;66.25;100887.44;4994293;28;20116;-51
2022/05/31 04:09:06;;;;;;;4.25;2.30;;;;;;;13.69;66.00;100888.09;4994207;28;20088;-51
2022/05/31 04:11:34;;;;;;;4.72;2.38;;;;;;;13.77;65.48;100886.19;4993658;28;20062;-52
2022/05/31 04:14:01;;;;;;;4.78;2.63;;;;;;;13.89;65.55;100893.75;4993748;28;20062;-52
2022/05/31 04:16:34;;;;;;;3.95;2.42;;;;;;;14.04;65.22;100892.59;4994101;28;20105;-51
2022/05/31 04:19:03;;;;;;;6.30;2.47;;;;;;;14.18;65.00;100894.97;4993834;28;20070;-50
2022/05/31 04:21:31;;;;;;;4.03;2.60;;;;;;;14.33;64.48;100888.56;4993993;28;20143;-51
2022/05/31 04:24:08;;;;;;;2.83;2.17;;;;;;;14.50;63.88;100892.53;4994037;28;20069;-52
2022/05/31 04:26:40;;;;;;;3.00;2.03;;;;;;;14.73;63.82;100893.81;4993756;28;20133;-51
2022/05/31 04:29:06;;;;;;;3.13;1.90;;;;;;;14.92;63.20;100900.31;5001574;28;20060;-54
2022/05/31 04:31:35;;;;;;;2.70;2.03;;;;;;;15.12;62.14;100902.47;5013231;28;20054;-54
2022/05/31 04:34:04;;;;;;;3.45;1.85;;;;;;;15.29;61.68;100899.41;5012973;28;20049;-54
2022/05/31 04:36:31;;;;;;;3.15;2.10;;;;;;;15.48;60.98;100893.69;5013291;28;20534;-50
2022/05/31 04:38:59;;;;;;;4.55;2.20;;;;;;;15.64;60.72;100902.03;5013456;28;20053;-50
2022/05/31 04:41:31;;;;;;;2.75;2.10;;;;;;;15.81;60.26;100895.50;4996524;28;20054;-50
2022/05/31 04:43:59;;;;;;;2.85;1.75;;;;;;;15.96;60.03;100905.53;4993686;28;20058;-50
2022/05/31 04:46:30;;;;;;;5.38;2.10;;;;;;;16.12;59.44;100914.66;4974158;28;20475;-50
2022/05/31 04:49:02;;;;;;;3.13;2.10;;;;;;;16.24;59.29;100911.69;4974467;28;20055;-53
2022/05/31 04:51:29;;;;;;;4.00;2.65;;;;;;;16.40;58.93;100920.81;4974274;28;20113;-51
2022/05/31 04:53:55;;;;;;;4.40;2.42;;;;;;;16.44;58.25;100915.50;4973665;28;20415;-54
2022/05/31 04:56:23;;;;;;;4.57;2.13;;;;;;;16.42;58.44;100910.31;4986884;28;20057;-50
2022/05/31 04:58:52;;;;;;;4.57;2.10;;;;;;;16.40;58.22;100907.72;4995802;28;20149;-53
2022/05/31 05:01:21;;;;;;;2.95;2.03;;;;;;;16.48;58.08;100907.50;4997071;28;20073;-50
2022/05/31 05:03:49;;;;;;;3.90;2.45;;;;;;;16.57;57.76;100906.38;4997803;28;20065;-52
2022/05/31 05:06:20;;;;;;;4.60;2.60;;;;;;;16.71;57.05;100906.84;4997802;28;20050;-51
2022/05/31 05:08:49;;;;;;;4.07;2.50;;;;;;;16.85;56.51;100906.41;4997572;28;20058;-52
2022/05/31 05:11:21;;;;;;;5.28;2.88;;;;;;;17.01;56.15;100908.50;4996222;28;20514;-51
2022/05/31 05:13:51;;;;;;;3.42;2.53;;;;;;;17.16;55.55;100911.53;4997425;28;20082;-51
2022/05/31 05:16:19;;;;;;;3.83;2.30;;;;;;;17.33;55.27;100907.47;4997417;28;20042;-51
2022/05/31 05:18:47;;;;;;;4.35;2.25;;;;;;;17.46;55.11;100900.03;4997225;28;20046;-51
2022/05/31 05:21:16;;;;;;;3.80;2.50;;;;;;;17.61;54.55;100896.88;4996519;28;20474;-50
2022/05/31 05:23:45;;;;;;;5.75;2.70;;;;;;;17.77;54.10;100907.75;4997317;28;20054;-50
2022/05/31 05:26:13;;;;;;;3.83;2.78;;;;;;;17.90;53.54;100905.53;4997303;28;20054;-51
2022/05/31 05:31:33;;;;;;;7.18;2.10;;;;;;;18.20;52.68;100890.44;4975074;28;20483;-53
2022/05/31 05:34:01;;;;;;;4.05;2.15;;;;;;;18.38;52.04;100892.41;4975339;28;20054;-51
2022/05/31 05:36:28;;;;;;;4.88;2.33;;;;;;;18.53;51.84;100896.19;5001543;28;20092;-54
2022/05/31 05:38:56;;;;;;;9.52;2.60;;;;;;;18.69;51.55;100892.09;5016547;28;20046;-54
2022/05/31 05:41:25;;;;;;;4.97;2.70;;;;;;;18.87;51.06;100901.88;5000070;28;20050;-55
2022/05/31 05:43:54;;;;;;;3.70;2.42;;;;;;;18.98;50.54;100898.81;4997042;28;20058;-55
2022/05/31 05:46:24;;;;;;;2.83;2.08;;;;;;;19.07;50.14;100897.59;4996690;28;20046;-51
2022/05/31 05:48:52;;;;;;;3.65;2.13;;;;;;;19.12;49.82;100900.88;4996944;28;20057;-51
2022/05/31 05:51:20;;;;;;;5.45;2.20;;;;;;;19.20;50.04;100893.53;4996747;28;20050;-51
2022/05/31 05:53:48;;;;;;;3.92;2.30;;;;;;;19.33;50.04;100894.75;4996907;28;20054;-51
2022/05/31 05:56:18;;;;;;;4.07;2.00;;;;;;;19.32;48.86;100903.56;4996408;28;20129;-54
2022/05/31 05:58:46;;;;;;;3.58;2.15;;;;;;;19.33;48.87;100907.91;4996665;28;20124;-53
2022/05/31 06:01:25;;;;;;;3.67;2.20;;;;;;;19.34;49.10;100909.59;4996185;28;20058;-53
2022/05/31 06:03:58;;;;;;;6.50;2.33;;;;;;;19.37;49.17;100906.84;4996216;28;20057;-53
2022/05/31 06:06:28;;;;;;;3.83;2.30;;;;;;;19.39;49.25;100904.16;4996142;28;20054;-53
2022/05/31 06:09:01;;;;;;;3.65;2.40;;;;;;;19.40;49.25;100905.88;4996468;28;20073;-53
2022/05/31 06:11:33;;;;;;;4.75;2.67;;;;;;;19.38;49.32;100897.19;4995900;28;20058;-52
2022/05/31 06:14:08;;;;;;;3.08;2.20;;;;;;;19.45;49.35;100902.13;4995888;28;20459;-55
2022/05/31 06:16:41;;;;;;;3.95;2.08;;;;;;;19.53;48.46;100899.19;4984800;28;20057;-52
2022/05/31 06:19:14;;;;;;;2.75;2.00;;;;;;;19.63;48.25;100902.28;4994371;28;20061;-52
2022/05/31 06:21:43;;;;;;;3.33;2.05;;;;;;;19.74;48.48;100900.03;5001770;28;20259;-52
2022/05/31 06:24:10;;;;;;;5.47;2.67;;;;;;;19.84;48.08;100902.22;4995901;28;20394;-54
2022/05/31 06:26:42;;;;;;;4.18;2.00;;;;;;;19.95;47.96;100909.63;4995768;28;20065;-53
2022/05/31 06:29:11;;;;;;;3.33;2.03;;;;;;;20.05;47.75;100895.13;5003114;28;20053;-56
2022/05/31 06:31:41;;;;;;;3.42;2.30;;;;;;;20.17;47.46;100905.13;4995719;28;20046;-56
2022/05/31 06:34:08;;;;;;;4.03;2.35;;;;;;;20.29;47.49;100905.47;4995812;28;20050;-52
2022/05/31 06:36:36;;;;;;;4.35;2.47;;;;;;;20.40;47.04;100912.00;4987486;28;20047;-53
2022/05/31 06:39:03;;;;;;;4.32;2.00;;;;;;;20.47;47.23;100907.31;4981863;28;20059;-50
2022/05/31 06:41:31;;;;;;;3.97;2.33;;;;;;;20.60;47.22;100911.06;4990005;28;20047;-53
2022/05/31 06:44:05;;;;;;;4.03;2.25;;;;;;;20.71;46.46;100906.16;4991758;28;20138;-53
2022/05/31 06:46:33;;;;;;;2.55;2.00;;;;;;;20.86;46.51;100903.72;4987889;28;20058;-51
2022/05/31 06:49:02;;;;;;;3.40;2.47;;;;;;;21.00;46.21;100906.53;4995456;28;20479;-52
2022/05/31 06:57:03;;;;;;;4.75;2.17;;;;;;;21.01;45.86;100929.34;4993795;28;20545;-51
2022/05/31 06:59:33;;;;;;;6.20;2.15;;;;;;;21.11;45.87;100928.81;4991551;28;20050;-51
2022/05/31 07:02:04;;;;;;;4.72;2.03;;;;;;;21.06;45.70;100933.44;4997220;28;20054;-53
2022/05/31 07:04:31;;;;;;;5.50;2.13;;;;;;;21.11;45.78;100925.31;4997598;28;20077;-54
2022/05/31 07:06:58;;;;;;;3.85;2.10;;;;;;;21.19;45.26;100928.44;4995974;28;20050;-53
2022/05/31 07:09:25;;;;;;;3.47;1.95;;;;;;;21.16;45.48;100928.56;4995361;28;20054;-52
2022/05/31 07:11:51;;;;;;;4.63;1.90;;;;;;;21.29;45.36;100934.13;4994398;28;20054;-53
2022/05/31 07:14:18;;;;;;;4.05;2.10;;;;;;;21.34;45.17;100932.16;4994691;28;20407;-55
2022/05/31 07:16:46;;;;;;;3.80;2.05;;;;;;;21.46;44.72;100935.94;4994843;28;20065;-51
2022/05/31 07:19:14;;;;;;;5.95;1.95;;;;;;;21.54;44.68;100944.31;4986753;28;20117;-52
2022/05/31 07:21:42;;;;;;;2.83;1.90;;;;;;;21.48;44.56;100939.34;4994608;28;20053;-52
2022/05/31 07:24:09;;;;;;;4.18;1.88;;;;;;;21.55;44.24;100951.31;4995581;28;20058;-51
2022/05/31 07:26:38;;;;;;;7.22;1.98;;;;;;;21.41;44.32;100941.47;4995537;28;20094;-51
2022/05/31 07:29:06;;;;;;;4.25;1.80;;;;;;;21.42;44.42;100940.53;5002747;28;20084;-51
2022/05/31 07:31:35;;;;;;;7.05;1.95;;;;;;;21.55;44.19;100946.03;4995367;28;20076;-51
2022/05/31 07:34:04;;;;;;;3.00;1.75;;;;;;;21.69;43.93;100938.25;4990626;28;20069;-51
2022/05/31 07:36:32;;;;;;;2.38;1.60;;;;;;;21.84;43.71;100926.91;4992664;28;20054;-52
2022/05/31 07:38:58;;;;;;;4.85;2.08;;;;;;;22.01;43.50;100940.09;4994373;28;20065;-51
2022/05/31 07:41:25;;;;;;;4.72;2.00;;;;;;;22.19;42.77;100937.44;4994120;28;20050;-52
2022/05/31 07:43:53;;;;;;;2.20;1.38;;;;;;;22.31;42.34;100942.91;4994164;28;20050;-52
2022/05/31 07:46:21;;;;;;;2.45;1.50;;;;;;;22.39;41.79;100939.91;4994536;28;20474;-54
2022/05/31 07:48:48;;;;;;;3.22;1.30;;;;;;;22.43;41.72;100952.00;4989370;28;20057;-50
2022/05/31 07:51:18;;;;;;;2.58;1.50;;;;;;;22.45;40.68;100950.13;4993160;28;20054;-51
2022/05/31 07:53:45;;;;;;;2.55;1.38;;;;;;;22.52;41.39;100955.94;4993757;28;20471;-51
2022/05/31 07:56:12;;;;;;;2.50;1.70;;;;;;;22.62;40.83;100962.41;4993375;28;20061;-51
2022/05/31 07:58:42;;;;;;;8.00;1.92;;;;;;;22.73;41.02;100959.16;4994126;28;20075;-51
2022/05/31 08:01:15;;;;;;;2.22;1.30;;;;;;;22.63;40.81;100959.69;4993709;28;20771;-51
2022/05/31 08:03:44;;;;;;;2.78;1.30;;;;;;;22.50;40.91;100958.66;4993698;28;20073;-51
2022/05/31 08:06:14;;;;;;;2.00;1.25;;;;;;;22.43;41.13;100962.56;4993128;28;20478;-52
2022/05/31 08:08:44;;;;;;;4.78;1.38;;;;;;;22.53;41.18;100958.47;4993479;28;20128;-54
2022/05/31 08:11:15;;;;;;;5.18;1.30;;;;;;;22.66;40.65;100956.88;4993283;28;20105;-54
2022/05/31 08:13:45;;;;;;;3.03;1.30;;;;;;;22.77;40.35;100963.34;4993720;28;20061;-51
2022/05/31 08:16:16;;;;;;;1.88;1.40;;;;;;;22.92;40.37;100965.19;4993937;28;20054;-50
2022/05/31 08:18:44;;;;;;;4.15;1.70;;;;;;;23.08;40.23;100967.81;4993261;28;20089;-51
2022/05/31 08:21:15;;;;;;;1.50;1.08;;;;;;;23.18;40.08;100961.91;4993602;28;20049;-50
2022/05/31 08:23:47;;;;;;;4.07;1.38;;;;;;;23.36;39.73;100960.00;4993371;28;20497;-51
2022/05/31 08:26:14;;;;;;;4.43;1.27;;;;;;;23.27;39.76;100961.38;4993638;28;20065;-50
2022/05/31 08:28:42;;;;;;;1.50;1.10;;;;;;;23.36;39.29;100967.09;4997806;28;20049;-51
2022/05/31 08:31:12;;;;;;;2.08;1.00;;;;;;;23.41;39.07;100967.66;4995735;28;20530;-53
2022/05/31 08:33:40;;;;;;;4.63;1.15;;;;;;;23.40;38.87;100960.69;4989741;28;20621;-51
2022/05/31 08:36:08;;;;;;;4.15;0.80;;;;;;;23.42;38.26;100958.81;4985854;28;20046;-54
2022/05/31 08:38:36;;;;;;;3.00;1.00;;;;;;;23.48;38.04;100958.47;4990435;28;20061;-52
2022/05/31 08:41:22;;;;;;;1.80;0.80;;;;;;;23.55;37.49;100957.19;4992973;28;20057;-53
2022/05/31 08:43:58;;;;;;;1.00;0.60;;;;;;;23.66;37.43;100952.13;4984187;28;20085;-51
2022/05/31 08:46:35;;;;;;;3.50;0.80;;;;;;;23.53;37.09;100961.69;4979925;28;20054;-52
2022/05/31 08:49:11;;;;;;;1.58;0.70;;;;;;;23.67;37.09;100961.75;4989593;28;20455;-51
2022/05/31 08:51:52;;;;;;;3.38;0.80;;;;;;;23.92;36.30;100958.47;4978707;28;20076;-50
2022/05/31 08:57:16;;;;;;;5.43;0.98;;;;;;;23.36;37.20;100964.44;4995535;28;20073;-53
2022/05/31 08:59:49;;;;;;;7.22;1.20;;;;;;;23.25;37.79;100963.28;4993354;28;20057;-50
2022/05/31 09:02:24;;;;;;;0.95;0.60;;;;;;;23.13;37.89;100963.97;4993411;28;20046;-51
2022/05/31 09:04:59;;;;;;;2.90;0.60;;;;;;;22.90;37.31;100972.34;4992931;28;20062;-50
2022/05/31 09:07:31;;;;;;;2.97;1.00;;;;;;;22.75;38.51;100965.22;4993254;28;20054;-51
2022/05/31 09:10:04;;;;;;;1.00;0.60;;;;;;;22.71;38.31;100961.91;4992531;28;20097;-51
2022/05/31 09:12:45;;;;;;;1.83;0.70;;;;;;;22.64;37.28;100956.09;4993509;28;20069;-51
2022/05/31 09:15:19;;;;;;;1.95;0.77;;;;;;;22.52;37.94;100961.22;4984606;28;20363;-54
2022/05/31 09:18:03;;;;;;;1.33;0.57;;;;;;;22.33;38.57;100966.59;4993225;28;20050;-49
2022/05/31 09:20:37;;;;;;;2.78;0.90;;;;;;;22.20;39.10;100968.19;4992666;28;20146;-50
2022/05/31 09:23:04;;;;;;;1.20;0.70;;;;;;;22.11;39.46;100956.34;4989677;28;20054;-52
2022/05/31 09:25:42;;;;;;;1.83;0.60;;;;;;;22.14;39.27;100961.47;4992038;28;20062;-50
2022/05/31 09:28:27;;;;;;;3.40;0.80;;;;;;;22.22;37.91;100974.25;4993119;28;20082;-51
2022/05/31 09:30:55;;;;;;;0.93;0.65;;;;;;;22.24;38.34;100961.81;4988742;28;20055;-50
2022/05/31 09:33:30;;;;;;;3.15;0.60;;;;;;;22.33;38.52;100956.03;4992791;28;20062;-52
2022/05/31 09:36:06;;;;;;;0.90;0.70;;;;;;;22.47;38.46;100950.91;4994934;28;20065;-51
2022/05/31 09:39:02;;;;;;;1.95;0.50;;;;;;;22.62;37.19;100957.97;4990167;28;20046;-51
2022/05/31 09:41:39;;;;;;;2.53;0.60;;;;;;;22.59;36.17;100957.28;4965637;28;20129;-55
2022/05/31 09:44:14;;;;;;;1.00;0.50;;;;;;;22.45;36.75;100955.41;4994660;28;20054;-50
2022/05/31 09:46:51;;;;;;;1.08;0.50;;;;;;;22.41;37.02;100953.88;4989322;28;20046;-52
2022/05/31 09:49:25;;;;;;;2.10;0.68;;;;;;;22.34;35.65;100952.47;4995285;28;20054;-51
2022/05/31 09:51:53;;;;;;;1.10;0.68;;;;;;;22.25;36.82;100960.88;4992799;28;20069;-52
2022/05/31 09:57:13;;;;;;;1.98;0.70;;;;;;;22.15;37.04;100962.31;4996077;28;20057;-52
2022/05/31 09:59:50;;;;;;;2.17;0.57;;;;;;;22.07;37.23;100964.50;4994373;28;20042;-53
2022/05/31 10:02:37;;;;;;;4.88;0.98;;;;;;;21.98;36.55;100964.03;4995002;28;20352;-53
2022/05/31 10:05:20;;;;;;;1.23;0.70;;;;;;;21.90;36.84;100963.56;4994817;28;20479;-51
2022/05/31 10:07:49;;;;;;;3.17;1.00;;;;;;;21.76;37.35;100966.03;4995826;28;20057;-51
2022/05/31 10:10:23;;;;;;;2.58;0.60;;;;;;;21.64;37.34;100969.31;4995803;28;20054;-50
2022/05/31 10:12:53;;;;;;;1.27;0.63;;;;;;;21.59;37.75;100968.69;4996196;28;20054;-52
2022/05/31 10:15:34;;;;;;;2.65;0.80;;;;;;;21.64;37.78;100969.31;4990320;28;20078;-48
2022/05/31 10:18:04;;;;;;;2.63;0.98;;;;;;;21.69;37.63;100967.28;4981969;28;20110;-48
2022/05/31 10:20:33;;;;;;;2.63;0.80;;;;;;;21.66;37.68;100959.53;4992404;28;20050;-49
2022/05/31 10:23:04;;;;;;;5.15;1.00;;;;;;;21.57;37.71;100967.91;4995641;28;20050;-52
2022/05/31 10:25:38;;;;;;;8.93;1.40;;;;;;;21.44;37.77;100966.81;4981442;28;20121;-54
2022/05/31 10:28:12;;;;;;;1.27;0.73;;;;;;;21.41;37.95;100976.59;4996417;28;20065;-51
2022/05/31 10:30:41;;;;;;;4.72;1.67;;;;;;;21.44;37.83;100966.81;4989636;28;20093;-50
2022/05/31 10:33:12;;;;;;;1.52;0.95;;;;;;;21.43;37.87;100968.59;4996419;28;20399;-50
2022/05/31 10:35:43;;;;;;;1.88;0.63;;;;;;;21.33;37.97;100965.56;4996316;28;20042;-52
2022/05/31 10:38:28;;;;;;;1.80;0.68;;;;;;;21.26;37.61;100972.03;4995452;28;20055;-50
2022/05/31 10:40:57;;;;;;;;;;;;;;;21.07;37.73;100965.94;4981368;28;20078;-50
2022/05/31 10:43:35;;;;;;;1.00;0.50;;;;;;;21.03;38.56;100974.91;4996745;28;19930;-50
2022/05/31 10:46:11;;;;;;;2.70;0.95;;;;;;;20.94;38.99;100970.09;4996894;28;20046;-50
2022/05/31 10:48:46;;;;;;;2.45;0.70;;;;;;;20.84;39.42;100974.94;4995390;28;20108;-50
2022/05/31 10:51:26;;;;;;;3.10;1.00;;;;;;;20.82;39.60;100968.03;4995946;28;20050;-51
2022/05/31 10:54:07;;;;;;;1.85;0.80;;;;;;;20.76;38.75;100977.91;4985679;28;20066;-51
2022/05/31 10:56:44;;;;;;;2.25;0.90;;;;;;;20.67;39.45;100973.06;4994454;28;20058;-55
2022/05/31 10:59:17;;;;;;;2.50;1.15;;;;;;;20.67;38.93;100967.81;4995435;28;20121;-55
2022/05/31 11:02:05;;;;;;;2.17;1.02;;;;;;;20.61;38.37;100962.81;4995474;28;20077;-54
2022/05/31 11:04:55;;;;;;;3.95;1.13;;;;;;;20.50;38.77;100965.09;4994913;28;20050;-52
2022/05/31 11:07:39;;;;;;;5.05;1.02;;;;;;;20.46;39.11;100964.38;4995805;28;20050;-51
2022/05/31 11:13:18;;;;;;;2.58;1.23;;;;;;;20.57;39.34;100970.94;4987436;28;20057;-55
2022/05/31 11:15:53;;;;;;;2.85;0.90;;;;;;;20.61;38.87;100972.50;4993296;28;20528;-51
2022/05/31 11:19:11;;;;;;;2.55;0.75;;;;;;;20.55;37.89;100968.38;4995452;28;20053;-51
2022/05/31 11:21:55;;;;;;;2.70;0.90;;;;;;;20.46;37.87;100971.44;4988535;28;20042;-51
2022/05/31 11:24:51;;;;;;;1.30;0.65;;;;;;;20.45;38.52;100964.47;4994983;28;20487;-55
2022/05/31 11:27:36;;;;;;;2.67;0.98;;;;;;;20.44;40.50;100975.91;4995076;28;20061;-53
2022/05/31 11:30:17;;;;;;;9.23;1.95;;;;;;;20.30;41.23;100978.28;4994957;28;20050;-52
2022/05/31 11:32:58;;;;;;;3.65;1.20;;;;;;;20.14;41.56;100984.19;4994981;28;20057;-54
2022/05/31 11:35:39;;;;;;;3.92;1.10;;;;;;;20.02;41.23;100984.75;4995154;28;20046;-50
2022/05/31 11:38:16;;;;;;;3.13;0.82;;;;;;;19.90;40.14;100984.44;4994750;28;20054;-50
2022/05/31 11:40:54;;;;;;;1.25;0.57;;;;;;;19.81;40.48;100983.91;4994748;28;20050;-51
2022/05/31 11:43:44;;;;;;;5.45;0.70;;;;;;;19.80;39.69;100983.97;4993937;28;20050;-55
2022/05/31 11:46:19;;;;;;;1.27;0.63;;;;;;;19.74;39.86;100973.69;4990291;28;20494;-52
2022/05/31 11:48:55;;;;;;;1.98;0.63;;;;;;;19.67;39.57;100982.75;4989691;28;20081;-53
2022/05/31 11:51:38;;;;;;;2.78;0.85;;;;;;;19.65;40.16;100981.97;4994332;28;20139;-55
2022/05/31 11:54:32;;;;;;;8.50;0.82;;;;;;;19.72;39.38;100978.16;4993932;28;20070;-52
2022/05/31 11:57:14;;;;;;;1.05;0.50;;;;;;;19.72;39.01;100976.38;5000174;28;20528;-52
2022/05/31 11:59:47;;;;;;;2.05;0.80;;;;;;;19.78;39.79;100991.06;5000576;28;20046;-51
2022/05/31 12:02:25;;;;;;;1.10;0.55;;;;;;;19.80;39.65;100978.72;4999118;28;20057;-51